メインページ
METAR-TAF:

METAR-TAF

空港 :

Defiance Memorial Airport

Defiance, オハイオ州, アメリカ合衆国

緯度: 41-20-11N, 経度: 084-25-46W, 海抜: 215m

現時点の気象観測

当レポートは52分前の17:53(UTC)に作成
変向風 6kt
気温 31°C
湿度 49%
気圧 1018 hPa
視程: 16.1km
晴天

METAR: KDFI 261753Z AUTO VRB06KT 10SM CLR 31/19 A3005 RMK AO2 SLP171 T03060194 10306 20217 58009

時間: 14:45 (18:45 UTC)


TAF: 見つかりません

4,000以上の空港の気象観測と天気予報(METAR報とTAF報)

利用可能な観測所は地図上に黄色い丸と赤い丸で示す。

丸の上にカーソルを重ねると観測所名を参照できる。

次にクリックすると気象観測と天気予報を参照できる。

マップの切り替え:黒色「×」印の緑ボタンをクリックして拡大、「-」印の緑ボタンをクリックして縮小、緑色の三角印をクリックして隣りの地図に切り替え


METAR-TAF: